< < Back
Terminal Aerodrome Forecast


Current Version              Previous Versions:   1  2  3  4  5  6  7  8  9  

Terminal Aerodrome Forecast

794
FTUS42 KCHS 232300
TAFCHS
TAF
KCHS 232324Z 2400/2424 00000KT P6SM SCT250
     FM241500 02006KT P6SM FEW250=

Latest METAR

406
SAUS80 KWBC 240900 RRB
MTRCHS
METAR KCHS 240856Z 34003KT 10SM SCT250 10/07 A3002 RMK AO2 SLP163
T01000072 55003


USA.gov is the U.S. government's official web portal to all federal, state and local government web resources and services.